Terminal Aerodrome Forecast
Issued by NWS Charleston, SC

Current Version | Previous Version | Text Only | Print | Product List | Glossary On
Versions: 1 2 3 4 5 6 7 8 9 10 11 12 13 14 15 16 17
000
FTUS42 KCHS 270527
TAFCHS
TAF
KCHS 270527Z 2706/2806 25004KT P6SM SKC
     FM271500 25013G20KT P6SM FEW200
     FM272200 22012G18KT P6SM FEW050
     FM280000 22009KT P6SM FEW050 SCT200=

USA.gov is the U.S. government's official web portal to all federal, state and local government web resources and services.